createdAt,value
2022-08-03T00:02:15.846Z,3.10
2022-08-03T00:04:42.397Z,3.10
2022-08-03T00:07:08.896Z,2.80
2022-08-03T00:09:35.553Z,3.53
2022-08-03T00:12:02.381Z,3.63
2022-08-03T00:14:28.774Z,3.10
2022-08-03T00:16:55.194Z,2.83
2022-08-03T00:19:21.593Z,3.23
2022-08-03T00:21:47.979Z,3.40
2022-08-03T00:24:14.368Z,3.40
2022-08-03T00:26:40.757Z,3.00
2022-08-03T00:29:07.156Z,3.20
2022-08-03T00:31:39.898Z,3.43
2022-08-03T00:34:18.121Z,3.50
2022-08-03T00:36:59.028Z,3.50
2022-08-03T00:39:25.451Z,3.40
2022-08-03T00:41:51.862Z,3.20
2022-08-03T00:44:18.295Z,3.30
2022-08-03T00:46:44.691Z,3.67
2022-08-03T00:49:11.183Z,3.00
2022-08-03T00:51:37.647Z,2.93
2022-08-03T00:54:04.699Z,3.37
2022-08-03T00:56:31.203Z,3.17
2022-08-03T00:58:58.746Z,3.60
2022-08-03T01:01:25.196Z,3.40
2022-08-03T01:03:51.625Z,3.93
2022-08-03T01:06:25.214Z,2.97
2022-08-03T01:09:01.459Z,2.67
2022-08-03T01:11:59.778Z,3.00
2022-08-03T01:14:34.411Z,2.80
2022-08-03T01:17:24.404Z,3.20
2022-08-03T01:20:06.627Z,3.17
2022-08-03T01:22:51.772Z,2.70
2022-08-03T01:25:39.180Z,2.67
2022-08-03T01:28:24.817Z,2.80
2022-08-03T01:30:55.507Z,3.00
2022-08-03T01:33:48.227Z,3.90
2022-08-03T01:36:18.032Z,2.87
2022-08-03T01:38:50.932Z,3.37
2022-08-03T01:41:21.548Z,2.87
2022-08-03T01:44:27.324Z,2.70
2022-08-03T01:46:38.727Z,2.90
2022-08-03T01:49:09.931Z,2.40
2022-08-03T01:52:03.464Z,2.80
2022-08-03T01:54:27.048Z,2.90
2022-08-03T01:56:56.701Z,2.90
2022-08-03T01:59:25.804Z,2.97
2022-08-03T02:02:28.416Z,3.10
2022-08-03T02:04:42.542Z,2.67
2022-08-03T02:07:10.319Z,2.87
2022-08-03T02:09:41.472Z,2.77
2022-08-03T02:12:10.176Z,2.50
2022-08-03T02:14:39.264Z,2.90
2022-08-03T02:17:07.793Z,3.00
2022-08-03T02:19:35.907Z,2.70
2022-08-03T02:22:03.963Z,3.10
2022-08-03T02:24:31.830Z,2.97
2022-08-03T02:26:59.734Z,2.93
2022-08-03T02:29:39.299Z,3.00
2022-08-03T02:32:12.475Z,2.87
2022-08-03T02:34:42.097Z,2.67
2022-08-03T02:37:11.680Z,3.00
2022-08-03T02:39:40.982Z,3.17
2022-08-03T02:42:12.188Z,2.93
2022-08-03T02:44:41.545Z,2.57
2022-08-03T02:47:10.417Z,3.00
2022-08-03T02:49:51.438Z,2.50
2022-08-03T02:52:21.329Z,2.87
2022-08-03T02:54:51.121Z,3.00
2022-08-03T02:57:20.060Z,3.10
2022-08-03T02:59:47.522Z,3.00
2022-08-03T03:02:16.581Z,2.93
2022-08-03T03:05:52.161Z,2.90
2022-08-03T03:07:38.430Z,3.20
2022-08-03T03:10:17.784Z,2.70
2022-08-03T03:12:46.565Z,3.20
2022-08-03T03:15:12.987Z,2.87
2022-08-03T03:17:39.661Z,3.00
2022-08-03T03:20:07.530Z,2.80
2022-08-03T03:22:34.588Z,3.30
2022-08-03T03:25:01.906Z,3.47
2022-08-03T03:27:28.440Z,3.00
2022-08-03T03:29:57.774Z,3.37
2022-08-03T03:32:24.439Z,2.93
2022-08-03T03:34:51.012Z,2.90
2022-08-03T03:37:17.578Z,3.27
2022-08-03T03:39:44.184Z,3.10
2022-08-03T03:42:10.989Z,3.40
2022-08-03T03:44:37.512Z,7.33
2022-08-03T03:47:04.252Z,7.60
2022-08-03T03:49:31.684Z,7.53
2022-08-03T03:51:58.433Z,10.20
2022-08-03T03:54:25.468Z,6.40
2022-08-03T03:56:55.664Z,6.63
2022-08-03T03:59:22.213Z,5.00
2022-08-03T04:01:48.785Z,4.87
2022-08-03T04:04:44.395Z,5.37
2022-08-03T04:07:29.180Z,12.23
2022-08-03T04:10:15.107Z,8.33
2022-08-03T04:12:50.583Z,8.20
2022-08-03T04:15:21.576Z,8.00
2022-08-03T04:17:51.408Z,12.80
2022-08-03T04:20:20.581Z,11.73
2022-08-03T04:22:51.252Z,8.83
2022-08-03T04:25:19.745Z,9.30
2022-08-03T04:28:07.922Z,8.00
2022-08-03T04:30:37.552Z,15.97
2022-08-03T04:33:06.256Z,13.40
2022-08-03T04:36:01.341Z,6.80
2022-08-03T04:38:21.292Z,5.90
2022-08-03T04:40:48.738Z,4.63
2022-08-03T04:43:18.428Z,4.83
2022-08-03T04:45:47.838Z,4.40
2022-08-03T04:48:15.473Z,4.30
2022-08-03T04:50:42.858Z,3.57
2022-08-03T04:53:09.453Z,3.40
2022-08-03T04:55:36.512Z,3.90
2022-08-03T04:58:04.357Z,3.53
2022-08-03T05:00:31.278Z,3.90
2022-08-03T05:02:57.947Z,3.33
2022-08-03T05:05:24.752Z,3.67
2022-08-03T05:07:51.578Z,3.57
2022-08-03T05:10:19.563Z,3.47
2022-08-03T05:12:48.068Z,3.50
2022-08-03T05:15:15.748Z,3.57
2022-08-03T05:17:42.697Z,3.60
2022-08-03T05:20:10.038Z,3.13
2022-08-03T05:22:36.438Z,3.70
2022-08-03T05:25:03.425Z,3.40
2022-08-03T05:27:29.877Z,2.93
2022-08-03T05:29:56.276Z,3.27
2022-08-03T05:32:42.652Z,3.50
2022-08-03T05:35:55.881Z,3.53
2022-08-03T05:37:55.792Z,3.00
2022-08-03T05:40:22.198Z,2.77
2022-08-03T05:42:48.628Z,3.03
2022-08-03T05:45:15.040Z,2.97
2022-08-03T05:47:44.156Z,2.67
2022-08-03T05:50:11.958Z,2.93
2022-08-03T05:52:39.110Z,2.33
2022-08-03T05:55:09.103Z,2.77
2022-08-03T05:57:36.355Z,3.10
2022-08-03T06:00:10.798Z,3.20
2022-08-03T06:02:39.873Z,2.60
2022-08-03T06:05:06.887Z,2.87
2022-08-03T06:07:33.288Z,2.60
2022-08-03T06:10:36.898Z,2.70
2022-08-03T06:12:49.426Z,2.90
2022-08-03T06:15:16.154Z,2.80
2022-08-03T06:17:49.567Z,2.40
2022-08-03T06:20:18.438Z,2.77
2022-08-03T06:22:50.980Z,2.87
2022-08-03T06:25:19.328Z,2.43
2022-08-03T06:27:47.822Z,2.73
2022-08-03T06:30:18.085Z,2.80
2022-08-03T06:32:51.667Z,2.57
2022-08-03T06:35:18.922Z,2.67
2022-08-03T06:37:47.458Z,2.10
2022-08-03T06:40:16.763Z,2.10
2022-08-03T06:42:50.710Z,2.30
2022-08-03T06:45:17.792Z,2.30
2022-08-03T06:47:44.589Z,2.23
2022-08-03T06:50:16.207Z,2.20
2022-08-03T06:52:43.861Z,2.13
2022-08-03T06:55:11.462Z,2.00
2022-08-03T06:57:37.915Z,2.03
2022-08-03T07:00:09.006Z,2.33
2022-08-03T07:02:39.804Z,2.17
2022-08-03T07:05:07.057Z,2.20
2022-08-03T07:07:33.510Z,1.93
2022-08-03T07:09:59.956Z,1.93
2022-08-03T07:12:28.540Z,1.70
2022-08-03T07:15:00.658Z,2.13
2022-08-03T07:17:28.390Z,2.30
2022-08-03T07:19:54.778Z,1.75
2022-08-03T07:22:21.179Z,1.77
2022-08-03T07:24:47.755Z,1.85
2022-08-03T07:27:16.303Z,2.10
2022-08-03T07:29:42.694Z,1.73
2022-08-03T07:32:09.376Z,2.00
2022-08-03T07:34:35.774Z,1.58
2022-08-03T07:37:02.170Z,1.80
2022-08-03T07:39:28.575Z,1.70
2022-08-03T07:41:55.017Z,2.00
2022-08-03T07:44:21.724Z,1.60
2022-08-03T07:46:48.189Z,2.00
2022-08-03T07:49:14.673Z,1.75
2022-08-03T07:51:41.126Z,1.67
2022-08-03T07:54:10.070Z,1.58
2022-08-03T07:56:37.590Z,1.88
2022-08-03T07:59:04.028Z,1.98
2022-08-03T08:01:32.730Z,1.60
2022-08-03T08:03:59.278Z,1.80
2022-08-03T08:06:25.683Z,1.67
2022-08-03T08:08:53.612Z,1.65
2022-08-03T08:11:22.228Z,1.70
2022-08-03T08:13:48.665Z,1.50
2022-08-03T08:16:15.084Z,1.55
2022-08-03T08:18:41.504Z,1.55
2022-08-03T08:21:08.730Z,1.50
2022-08-03T08:23:42.422Z,1.50
2022-08-03T08:26:10.477Z,1.70
2022-08-03T08:28:36.888Z,1.50
2022-08-03T08:31:03.341Z,1.60
2022-08-03T08:33:48.043Z,1.70
2022-08-03T08:36:16.768Z,1.60
2022-08-03T08:38:44.904Z,1.45
2022-08-03T08:41:12.890Z,1.48
2022-08-03T08:43:39.337Z,1.50
2022-08-03T08:46:08.350Z,1.70
2022-08-03T08:48:36.234Z,1.27
2022-08-03T08:51:05.444Z,1.58
2022-08-03T08:53:36.604Z,1.70
2022-08-03T08:56:04.336Z,1.40
2022-08-03T08:58:36.868Z,1.50
2022-08-03T09:01:04.797Z,1.67
2022-08-03T09:03:34.217Z,1.67
2022-08-03T09:06:02.151Z,1.60
2022-08-03T09:08:30.219Z,1.52
2022-08-03T09:10:56.672Z,1.40
2022-08-03T09:13:23.071Z,1.50
2022-08-03T09:16:08.488Z,1.60
2022-08-03T09:18:34.883Z,1.50
2022-08-03T09:21:30.604Z,1.45
2022-08-03T09:24:02.793Z,1.27
2022-08-03T09:26:31.609Z,2.00
2022-08-03T09:29:05.918Z,1.40
2022-08-03T09:31:43.263Z,1.52
2022-08-03T09:34:13.120Z,1.65
2022-08-03T09:36:48.319Z,1.30
2022-08-03T09:39:16.906Z,1.48
2022-08-03T09:41:45.800Z,1.55
2022-08-03T09:44:25.254Z,1.60
2022-08-03T09:46:56.332Z,1.60
2022-08-03T09:49:23.605Z,1.80
2022-08-03T09:52:32.975Z,1.88
2022-08-03T09:54:36.558Z,1.45
2022-08-03T09:57:03.200Z,1.23
2022-08-03T09:59:32.172Z,1.40
2022-08-03T10:02:00.585Z,1.40
2022-08-03T10:04:27.616Z,1.40
2022-08-03T10:07:09.278Z,1.60
2022-08-03T10:09:37.154Z,1.52
2022-08-03T10:12:13.784Z,1.40
2022-08-03T10:14:42.173Z,1.40
2022-08-03T10:17:09.689Z,1.45
2022-08-03T10:19:36.515Z,1.70
2022-08-03T10:22:06.937Z,1.17
2022-08-03T10:24:36.209Z,1.30
2022-08-03T10:27:07.989Z,1.30
2022-08-03T10:29:38.752Z,1.20
2022-08-03T10:32:14.586Z,1.10
2022-08-03T10:34:44.390Z,1.30
2022-08-03T10:37:13.386Z,1.35
2022-08-03T10:39:53.246Z,1.40
2022-08-03T10:42:28.266Z,1.40
2022-08-03T10:45:03.867Z,1.50
2022-08-03T10:47:31.532Z,1.25
2022-08-03T10:49:58.674Z,1.40
2022-08-03T10:52:30.308Z,1.40
2022-08-03T10:55:18.966Z,1.30
2022-08-03T10:57:58.517Z,1.23
2022-08-03T11:00:27.342Z,1.20
2022-08-03T11:03:06.693Z,2.00
2022-08-03T11:05:38.923Z,1.63
2022-08-03T11:08:23.121Z,1.15
2022-08-03T11:10:52.141Z,1.58
2022-08-03T11:13:20.844Z,1.25
2022-08-03T11:15:49.839Z,1.40
2022-08-03T11:18:16.989Z,1.17
2022-08-03T11:20:48.423Z,1.60
2022-08-03T11:23:16.923Z,1.60
2022-08-03T11:26:12.637Z,1.40
2022-08-03T11:28:40.489Z,1.40
2022-08-03T11:31:39.594Z,1.40
2022-08-03T11:34:10.209Z,1.50
2022-08-03T11:37:14.025Z,1.50
2022-08-03T11:39:46.368Z,1.30
2022-08-03T11:42:25.510Z,1.40
2022-08-03T11:44:54.000Z,1.40
2022-08-03T11:47:23.212Z,1.48
2022-08-03T11:49:51.296Z,1.70
2022-08-03T11:52:19.470Z,1.70
2022-08-03T11:54:56.986Z,1.45
2022-08-03T11:59:01.178Z,1.55
2022-08-03T12:00:21.776Z,1.40
2022-08-03T12:03:09.053Z,1.40
2022-08-03T12:05:51.212Z,1.30
2022-08-03T12:08:27.289Z,1.60
2022-08-03T12:10:54.836Z,1.55
2022-08-03T12:14:27.079Z,1.40
2022-08-03T12:16:10.115Z,1.30
2022-08-03T12:18:36.991Z,1.50
2022-08-03T12:21:06.587Z,1.60
2022-08-03T12:23:37.565Z,1.60
2022-08-03T12:26:06.845Z,1.50
2022-08-03T12:28:37.939Z,1.20
2022-08-03T12:31:07.338Z,1.60
2022-08-03T12:34:02.817Z,1.55
2022-08-03T12:36:32.429Z,1.40
2022-08-03T12:39:01.527Z,1.50
2022-08-03T12:41:39.803Z,1.10
2022-08-03T12:44:07.894Z,1.42
2022-08-03T12:46:34.259Z,1.38
2022-08-03T12:49:08.399Z,1.63
2022-08-03T12:51:44.153Z,1.55
2022-08-03T12:54:24.744Z,1.75
2022-08-03T12:56:57.614Z,1.55
2022-08-03T12:59:35.424Z,1.70
2022-08-03T13:02:16.143Z,1.65
2022-08-03T13:04:45.821Z,1.88
2022-08-03T13:07:14.509Z,1.52
2022-08-03T13:10:06.187Z,1.73
2022-08-03T13:12:46.682Z,1.63
2022-08-03T13:15:13.196Z,1.60
2022-08-03T13:17:40.872Z,1.40
2022-08-03T13:20:07.664Z,1.50
2022-08-03T13:22:34.603Z,1.70
2022-08-03T13:25:01.533Z,1.60
2022-08-03T13:28:03.952Z,2.03
2022-08-03T13:30:17.903Z,1.90
2022-08-03T13:32:58.235Z,2.08
2022-08-03T13:35:25.385Z,5.43
2022-08-03T13:37:53.004Z,2.20
2022-08-03T13:40:19.628Z,1.77
2022-08-03T13:42:50.194Z,1.70
2022-08-03T13:45:16.589Z,1.65
2022-08-03T13:47:43.041Z,1.60
2022-08-03T13:50:09.443Z,1.95
2022-08-03T13:52:36.403Z,1.92
2022-08-03T13:55:07.822Z,2.00
2022-08-03T13:58:03.860Z,1.77
2022-08-03T14:00:27.640Z,1.50
2022-08-03T14:03:06.713Z,1.73
2022-08-03T14:05:39.399Z,2.20
2022-08-03T14:08:07.033Z,1.80
2022-08-03T14:10:35.362Z,2.05
2022-08-03T14:13:01.856Z,4.50
2022-08-03T14:15:28.778Z,2.10
2022-08-03T14:17:56.384Z,2.00
2022-08-03T14:20:37.734Z,2.20
2022-08-03T14:23:12.809Z,1.65
2022-08-03T14:25:44.259Z,1.67
2022-08-03T14:28:17.337Z,1.70
2022-08-03T14:30:43.750Z,1.55
2022-08-03T14:33:10.174Z,1.80
2022-08-03T14:35:36.697Z,1.70
2022-08-03T14:38:03.091Z,1.70
2022-08-03T14:40:29.501Z,1.60
2022-08-03T14:42:55.933Z,2.10
2022-08-03T14:45:22.345Z,1.88
2022-08-03T14:50:29.392Z,1.83
2022-08-03T14:50:42.874Z,1.48
2022-08-03T14:53:12.450Z,1.70
2022-08-03T14:55:50.729Z,1.98
2022-08-03T14:58:20.586Z,1.60
2022-08-03T15:00:48.899Z,2.25
2022-08-03T15:03:16.860Z,1.50
2022-08-03T15:05:43.813Z,1.80
2022-08-03T15:08:10.229Z,1.83
2022-08-03T15:10:40.450Z,2.20
2022-08-03T15:13:11.226Z,1.80
2022-08-03T15:15:37.610Z,2.10
2022-08-03T15:18:04.208Z,2.22
2022-08-03T15:20:42.975Z,1.48
2022-08-03T15:23:11.945Z,1.98
2022-08-03T15:26:32.241Z,1.60
2022-08-03T15:28:24.775Z,1.80
2022-08-03T15:30:52.857Z,1.75
2022-08-03T15:33:19.285Z,1.70
2022-08-03T15:35:47.298Z,1.80
2022-08-03T15:38:13.713Z,2.00
2022-08-03T15:40:40.535Z,1.98
2022-08-03T15:43:07.388Z,2.10
2022-08-03T15:45:36.387Z,1.92
2022-08-03T15:48:07.140Z,1.80
2022-08-03T15:50:33.624Z,1.70
2022-08-03T15:53:00.079Z,1.90
2022-08-03T15:55:26.702Z,2.10
2022-08-03T15:59:11.423Z,2.40
2022-08-03T16:00:40.559Z,2.50
2022-08-03T16:03:07.246Z,2.72
2022-08-03T16:05:33.909Z,2.35
2022-08-03T16:08:03.829Z,1.95
2022-08-03T16:10:32.187Z,2.00
2022-08-03T16:12:59.810Z,4.00
2022-08-03T16:15:26.221Z,2.58
2022-08-03T16:17:52.844Z,3.28
2022-08-03T16:20:30.882Z,2.60
2022-08-03T16:23:07.756Z,3.20
2022-08-03T16:25:39.805Z,2.40
2022-08-03T16:28:13.138Z,2.80
2022-08-03T16:30:41.233Z,1.90
2022-08-03T16:33:07.701Z,2.78
2022-08-03T16:35:34.184Z,2.47
2022-08-03T16:38:00.759Z,3.45
2022-08-03T16:40:27.277Z,2.85
2022-08-03T16:42:54.213Z,2.10
2022-08-03T16:45:21.103Z,2.00
2022-08-03T16:47:47.551Z,2.10
2022-08-03T16:50:28.849Z,2.38
2022-08-03T16:52:55.249Z,2.10
2022-08-03T16:55:48.622Z,1.60
2022-08-03T16:58:08.152Z,2.78
2022-08-03T17:00:41.462Z,2.50
2022-08-03T17:03:12.463Z,2.15
2022-08-03T17:05:47.030Z,2.28
2022-08-03T17:08:15.013Z,2.67
2022-08-03T17:10:45.038Z,2.30
2022-08-03T17:13:21.680Z,2.65
2022-08-03T17:16:00.848Z,2.00
2022-08-03T17:18:34.018Z,2.60
2022-08-03T17:21:05.791Z,2.25
2022-08-03T17:23:47.999Z,2.20
2022-08-03T17:26:21.079Z,2.60
2022-08-03T17:28:57.695Z,2.58
2022-08-03T17:31:31.558Z,2.45
2022-08-03T17:34:01.677Z,2.47
2022-08-03T17:37:00.924Z,2.80
2022-08-03T17:39:21.104Z,2.30
2022-08-03T17:42:00.807Z,2.63
2022-08-03T17:44:31.087Z,2.97
2022-08-03T17:47:02.045Z,3.58
2022-08-03T17:49:29.023Z,3.13
2022-08-03T17:52:06.750Z,3.30
2022-08-03T17:55:54.861Z,2.65
2022-08-03T17:58:01.335Z,2.42
2022-08-03T18:00:47.742Z,2.35
2022-08-03T18:03:27.686Z,2.72
2022-08-03T18:06:10.987Z,3.10
2022-08-03T18:08:46.108Z,2.90
2022-08-03T18:11:16.281Z,3.08
2022-08-03T18:14:09.974Z,2.92
2022-08-03T18:16:52.143Z,3.40
2022-08-03T18:19:20.581Z,4.43
2022-08-03T18:22:09.965Z,7.78
2022-08-03T18:24:37.234Z,6.18
2022-08-03T18:27:05.524Z,5.80
2022-08-03T18:29:35.447Z,5.60
2022-08-03T18:32:06.071Z,5.80
2022-08-03T18:34:36.383Z,5.72
2022-08-03T18:37:08.426Z,4.60
2022-08-03T18:39:49.641Z,4.50
2022-08-03T18:42:19.637Z,3.88
2022-08-03T18:44:54.278Z,3.50
2022-08-03T18:47:56.962Z,3.47
2022-08-03T18:50:33.925Z,3.22
2022-08-03T18:53:15.605Z,3.30
2022-08-03T18:56:08.531Z,3.03
2022-08-03T18:59:02.151Z,7.72
2022-08-03T19:01:59.904Z,6.63
2022-08-03T19:04:46.059Z,8.10
2022-08-03T19:07:17.409Z,5.10
2022-08-03T19:09:54.354Z,4.32
2022-08-03T19:12:32.545Z,4.18
2022-08-03T19:15:12.635Z,4.03
2022-08-03T19:17:41.966Z,3.83
2022-08-03T19:20:21.906Z,7.47
2022-08-03T19:22:50.903Z,45.30
2022-08-03T19:25:18.469Z,24.08
2022-08-03T19:27:47.054Z,10.10
2022-08-03T19:30:35.732Z,8.15
2022-08-03T19:33:08.604Z,5.15
2022-08-03T19:35:51.634Z,8.55
2022-08-03T19:38:28.803Z,20.10
2022-08-03T19:40:59.645Z,18.73
2022-08-03T19:43:52.894Z,27.15
2022-08-03T19:46:22.437Z,20.55
2022-08-03T19:49:16.254Z,36.60
2022-08-03T19:52:00.704Z,29.77
2022-08-03T19:54:36.677Z,11.18
2022-08-03T19:57:17.539Z,6.55
2022-08-03T19:59:50.172Z,6.57
2022-08-03T20:02:27.004Z,4.50
2022-08-03T20:04:55.323Z,5.10
2022-08-03T20:07:22.940Z,4.55
2022-08-03T20:09:56.108Z,4.50
2022-08-03T20:15:11.187Z,4.28
2022-08-03T20:17:56.748Z,4.65
2022-08-03T20:20:32.112Z,17.20
2022-08-03T20:23:00.617Z,47.17
2022-08-03T20:25:38.088Z,49.67
2022-08-03T20:28:17.092Z,17.73
2022-08-03T20:30:47.220Z,11.48
2022-08-03T20:33:45.775Z,7.65
2022-08-03T20:36:13.523Z,6.70
2022-08-03T20:38:46.871Z,5.85
2022-08-03T20:41:13.629Z,5.90
2022-08-03T20:43:42.437Z,5.30
2022-08-03T20:46:31.700Z,5.10
2022-08-03T20:48:57.334Z,4.68
2022-08-03T20:51:50.678Z,5.28
2022-08-03T20:54:29.733Z,4.85
2022-08-03T20:57:00.705Z,4.72
2022-08-03T20:59:46.799Z,5.13
2022-08-03T21:02:19.731Z,4.25
2022-08-03T21:04:57.241Z,5.18
2022-08-03T21:07:24.228Z,4.93
2022-08-03T21:09:53.371Z,5.00
2022-08-03T21:12:38.661Z,5.03
2022-08-03T21:13:08.247Z,4.63
2022-08-03T21:15:09.684Z,4.63
2022-08-03T21:17:58.232Z,4.67
2022-08-03T21:20:30.724Z,4.93
2022-08-03T21:22:59.024Z,4.43
2022-08-03T21:25:28.380Z,5.53
2022-08-03T21:27:55.917Z,5.67
2022-08-03T21:30:24.574Z,4.93
2022-08-03T21:32:52.592Z,5.73
2022-08-03T21:35:20.289Z,5.27
2022-08-03T21:37:47.331Z,4.93
2022-08-03T21:40:15.912Z,5.70
2022-08-03T21:42:44.860Z,5.40
2022-08-03T21:45:17.085Z,5.77
2022-08-03T21:47:45.161Z,5.80
2022-08-03T21:50:13.253Z,5.47
2022-08-03T21:52:44.698Z,5.90
2022-08-03T21:55:20.508Z,6.00
2022-08-03T21:57:51.979Z,6.40
2022-08-03T22:00:21.867Z,6.10
2022-08-03T22:02:54.820Z,5.83
2022-08-03T22:05:43.036Z,5.30
2022-08-03T22:08:13.261Z,5.73
2022-08-03T22:10:40.866Z,6.30
2022-08-03T22:13:07.421Z,5.77
2022-08-03T22:15:33.877Z,5.60
2022-08-03T22:18:03.513Z,6.83
2022-08-03T22:20:30.232Z,6.53
2022-08-03T22:23:01.014Z,7.30
2022-08-03T22:25:30.597Z,6.97
2022-08-03T22:28:06.020Z,6.53
2022-08-03T22:30:33.260Z,5.73
2022-08-03T22:33:02.005Z,6.60
2022-08-03T22:35:29.440Z,6.20
2022-08-03T22:37:57.920Z,6.57
2022-08-03T22:40:25.791Z,6.47
2022-08-03T22:42:52.686Z,6.10
2022-08-03T22:46:06.910Z,6.57
2022-08-03T22:48:07.724Z,6.57
2022-08-03T22:50:34.654Z,6.03
2022-08-03T22:53:01.410Z,6.00
2022-08-03T22:55:28.301Z,5.87
2022-08-03T22:57:55.941Z,6.17
2022-08-03T23:00:24.089Z,6.43
2022-08-03T23:02:51.262Z,5.93
2022-08-03T23:06:01.225Z,6.03
2022-08-03T23:08:12.274Z,6.07
2022-08-03T23:10:44.859Z,5.93
2022-08-03T23:13:14.477Z,5.97
2022-08-03T23:15:41.358Z,5.87
2022-08-03T23:18:09.404Z,6.00
2022-08-03T23:20:37.726Z,5.53
2022-08-03T23:23:05.071Z,5.80
2022-08-03T23:25:32.673Z,6.50
2022-08-03T23:28:04.985Z,6.27
2022-08-03T23:30:34.499Z,6.97
2022-08-03T23:33:02.808Z,6.37
2022-08-03T23:36:27.552Z,6.00
2022-08-03T23:38:36.180Z,6.27
2022-08-03T23:41:04.689Z,5.63
2022-08-03T23:43:44.746Z,7.33
2022-08-03T23:46:23.940Z,6.80
2022-08-03T23:48:51.060Z,6.10
2022-08-03T23:51:29.530Z,6.17
2022-08-03T23:54:03.237Z,6.30
2022-08-03T23:56:59.596Z,6.80
2022-08-03T23:59:41.111Z,5.77
